Time;durP1;ratioP1;P1;durP2;ratioP2;P2;SDS_P1;SDS_P2;PMS_P1;PMS_P2;Temp;Humidity;BMP_temperature;BMP_pressure;BME280_temperature;BME280_humidity;BME280_pressure;Samples;Min_cycle;Max_cycle;Signal;HPM_P1;HPM_P2
2022/10/09 00:00:42;;;;;;;10.70;7.85;;;27.20;99.90;;;;;;1754520;82;21176;-87
2022/10/09 00:03:15;;;;;;;12.58;7.80;;;27.20;99.90;;;;;;1764033;81;21253;-86
2022/10/09 00:05:46;;;;;;;12.40;7.78;;;27.20;99.90;;;;;;1789164;80;21104;-87
2022/10/09 00:08:17;;;;;;;11.65;7.65;;;27.20;99.90;;;;;;1754741;80;21518;-87
2022/10/09 00:10:48;;;;;;;12.53;7.62;;;27.30;99.90;;;;;;1729469;81;21243;-86
2022/10/09 00:13:19;;;;;;;12.88;8.73;;;27.30;99.90;;;;;;1757408;81;21618;-85
2022/10/09 00:15:50;;;;;;;8.43;5.90;;;27.30;99.90;;;;;;1727207;83;21150;-82
2022/10/09 00:18:20;;;;;;;12.28;5.97;;;27.30;99.90;;;;;;1757606;80;21170;-86
2022/10/09 00:20:51;;;;;;;9.48;6.45;;;27.30;99.90;;;;;;1763223;81;21149;-87
2022/10/09 00:23:22;;;;;;;13.68;7.17;;;27.40;99.90;;;;;;1739392;81;21152;-87
2022/10/09 00:25:55;;;;;;;10.30;7.10;;;27.40;99.90;;;;;;1732415;81;21667;-86
2022/10/09 00:28:28;;;;;;;9.18;6.65;;;27.40;99.90;;;;;;1787206;80;21602;-86
2022/10/09 00:31:01;;;;;;;10.30;6.20;;;27.40;99.90;;;;;;1751893;80;21260;-88
2022/10/09 00:33:33;;;;;;;8.65;6.40;;;27.40;99.90;;;;;;1729694;83;21237;-85
2022/10/09 00:36:06;;;;;;;10.08;6.95;;;27.50;99.90;;;;;;1798061;78;21119;-86
2022/10/09 00:38:37;;;;;;;9.20;5.85;;;27.50;99.90;;;;;;1797171;78;21418;-86
2022/10/09 00:41:09;;;;;;;16.20;9.83;;;27.50;99.90;;;;;;1810304;78;21134;-87
2022/10/09 00:43:42;;;;;;;14.20;9.45;;;27.50;99.90;;;;;;1769118;80;21550;-86
2022/10/09 00:46:15;;;;;;;10.48;8.23;;;27.50;99.90;;;;;;1757050;81;21174;-86
2022/10/09 00:48:47;;;;;;;12.93;9.33;;;27.50;99.90;;;;;;1763049;80;21228;-86
2022/10/09 00:51:18;;;;;;;14.05;7.30;;;27.60;99.90;;;;;;1727890;81;21298;-86
2022/10/09 00:53:49;;;;;;;7.67;4.65;;;27.60;99.90;;;;;;1788293;80;21242;-86
2022/10/09 00:56:20;;;;;;;6.20;4.40;;;27.60;99.90;;;;;;1795075;78;21150;-86
2022/10/09 00:58:53;;;;;;;5.67;4.05;;;27.70;99.90;;;;;;1828787;78;21153;-86
2022/10/09 01:01:24;;;;;;;6.15;3.45;;;27.70;99.90;;;;;;1760262;80;21178;-87
2022/10/09 01:03:54;;;;;;;8.05;4.00;;;27.70;99.90;;;;;;1777954;78;21189;-88
2022/10/09 01:06:26;;;;;;;8.60;3.65;;;27.70;99.90;;;;;;1757545;80;21621;-87
2022/10/09 01:08:59;;;;;;;7.28;4.00;;;27.70;99.90;;;;;;1723239;83;21959;-86
2022/10/09 01:11:32;;;;;;;6.58;3.30;;;27.80;99.90;;;;;;1790063;79;21084;-85
2022/10/09 01:14:04;;;;;;;6.35;3.60;;;27.80;99.90;;;;;;1761101;80;21712;-87
2022/10/09 01:16:37;;;;;;;6.22;3.92;;;27.90;99.90;;;;;;1790284;78;21190;-86
2022/10/09 01:19:11;;;;;;;6.03;3.77;;;27.90;99.90;;;;;;1793427;78;21127;-87
2022/10/09 01:21:44;;;;;;;4.10;2.80;;;27.90;99.80;;;;;;1752563;80;21225;-85
2022/10/09 01:24:17;;;;;;;5.67;3.52;;;27.90;99.80;;;;;;1804823;78;21214;-85
2022/10/09 01:26:50;;;;;;;6.00;2.95;;;27.90;99.60;;;;;;1827569;78;21075;-86
2022/10/09 01:29:23;;;;;;;6.80;3.10;;;28.00;99.40;;;;;;1793330;78;21298;-86
2022/10/09 01:31:54;;;;;;;5.10;3.15;;;28.00;99.40;;;;;;1760173;80;21652;-87
2022/10/09 01:34:26;;;;;;;6.85;3.10;;;28.00;99.20;;;;;;1790913;79;21209;-87
2022/10/09 01:36:58;;;;;;;4.55;2.75;;;28.10;98.70;;;;;;1790987;78;21284;-87
2022/10/09 01:39:31;;;;;;;5.58;2.95;;;28.10;98.80;;;;;;1756214;81;21229;-87
2022/10/09 01:42:02;;;;;;;5.28;2.87;;;28.20;98.80;;;;;;1792742;78;21186;-87
2022/10/09 01:44:34;;;;;;;6.12;3.00;;;28.20;98.80;;;;;;1758220;80;21147;-85
2022/10/09 01:47:06;;;;;;;3.98;2.90;;;28.30;98.70;;;;;;1807861;78;21186;-87
2022/10/09 01:49:40;;;;;;;5.58;2.77;;;28.30;98.40;;;;;;1776087;80;21146;-87
2022/10/09 01:52:13;;;;;;;5.85;2.77;;;28.40;98.40;;;;;;1792909;80;21117;-87
2022/10/09 01:54:47;;;;;;;7.15;3.22;;;28.40;98.30;;;;;;1786782;79;21187;-87
2022/10/09 01:57:21;;;;;;;6.10;3.12;;;28.50;98.10;;;;;;1783040;78;21127;-86
2022/10/09 01:59:57;;;;;;;7.50;2.77;;;28.60;97.80;;;;;;1791739;78;21126;-86
2022/10/09 02:02:29;;;;;;;6.83;2.77;;;28.60;97.60;;;;;;1792602;78;21673;-87
2022/10/09 02:05:01;;;;;;;6.05;2.80;;;28.60;97.70;;;;;;1790590;78;21725;-86
2022/10/09 02:07:34;;;;;;;4.83;2.65;;;28.70;97.70;;;;;;1760280;80;21220;-86
2022/10/09 02:10:08;;;;;;;4.05;2.60;;;28.80;97.60;;;;;;1791215;78;21183;-85
2022/10/09 02:12:41;;;;;;;7.05;4.65;;;28.80;97.30;;;;;;1759432;80;21276;-86
2022/10/09 02:15:12;;;;;;;6.00;3.17;;;28.90;97.00;;;;;;1792047;78;21160;-84
2022/10/09 02:17:45;;;;;;;4.08;2.47;;;28.90;96.70;;;;;;1794017;79;21215;-86
2022/10/09 02:20:18;;;;;;;7.92;2.60;;;29.00;96.70;;;;;;1733987;80;21182;-86
2022/10/09 02:22:49;;;;;;;4.60;2.62;;;29.10;96.70;;;;;;1796074;78;21206;-85
2022/10/09 02:25:20;;;;;;;4.20;2.60;;;29.10;96.60;;;;;;1762052;80;21167;-86
2022/10/09 02:27:51;;;;;;;3.83;2.40;;;29.20;96.50;;;;;;1734745;81;21143;-86
2022/10/09 02:30:24;;;;;;;3.72;2.27;;;29.30;96.60;;;;;;1792712;78;21138;-87
2022/10/09 02:32:55;;;;;;;5.37;2.60;;;29.30;96.50;;;;;;1755397;80;21123;-85
2022/10/09 02:35:26;;;;;;;4.92;2.67;;;29.40;96.30;;;;;;1768135;79;21095;-86
2022/10/09 02:37:56;;;;;;;3.83;2.40;;;29.40;96.20;;;;;;1794075;80;21154;-85
2022/10/09 02:40:27;;;;;;;3.92;2.50;;;29.50;95.70;;;;;;1786671;80;21783;-87
2022/10/09 02:42:57;;;;;;;3.47;2.08;;;29.70;95.30;;;;;;1752542;81;21143;-87
2022/10/09 02:45:28;;;;;;;3.60;2.15;;;29.80;95.30;;;;;;1729294;81;21265;-87
2022/10/09 02:47:59;;;;;;;3.27;1.80;;;29.80;95.30;;;;;;1790610;80;21139;-87
2022/10/09 02:50:29;;;;;;;3.77;1.87;;;29.90;95.00;;;;;;1748625;80;21232;-87
2022/10/09 02:53:00;;;;;;;4.03;2.15;;;30.00;95.00;;;;;;1726106;83;21177;-88
2022/10/09 02:55:30;;;;;;;7.62;1.90;;;30.10;94.70;;;;;;1762134;80;21299;-84
2022/10/09 02:58:01;;;;;;;3.87;1.70;;;30.10;94.70;;;;;;1730375;81;21308;-85
2022/10/09 03:00:32;;;;;;;2.67;1.85;;;30.20;94.50;;;;;;1759374;80;21260;-86
2022/10/09 03:03:03;;;;;;;2.85;1.72;;;30.30;94.40;;;;;;1755646;80;21252;-86
2022/10/09 03:05:34;;;;;;;4.22;1.80;;;30.50;94.40;;;;;;1734087;81;21259;-86
2022/10/09 03:08:04;;;;;;;3.80;2.00;;;30.50;93.80;;;;;;1757797;81;21306;-85
2022/10/09 03:10:37;;;;;;;4.08;1.60;;;30.60;93.90;;;;;;1799279;78;21092;-86
2022/10/09 03:13:09;;;;;;;3.30;1.50;;;30.70;93.50;;;;;;1816107;78;21149;-86
2022/10/09 03:15:40;;;;;;;4.65;1.70;;;30.70;92.90;;;;;;1792052;80;21160;-86
2022/10/09 03:18:10;;;;;;;3.55;1.62;;;30.80;93.10;;;;;;1801839;78;21511;-88
2022/10/09 03:20:44;;;;;;;4.40;2.20;;;30.90;93.00;;;;;;1763411;81;21190;-87
2022/10/09 03:23:15;;;;;;;3.80;1.50;;;31.00;92.90;;;;;;1793256;80;21146;-87
2022/10/09 03:25:47;;;;;;;4.78;1.80;;;31.10;92.90;;;;;;1766569;81;21195;-87
2022/10/09 03:28:18;;;;;;;4.30;1.90;;;31.20;92.50;;;;;;1800367;78;21139;-87
2022/10/09 03:30:48;;;;;;;4.10;1.85;;;31.30;92.60;;;;;;1768260;81;21198;-87
2022/10/09 03:33:20;;;;;;;2.50;1.72;;;31.40;92.50;;;;;;1803086;78;21110;-88
2022/10/09 03:35:51;;;;;;;3.10;1.70;;;31.40;92.00;;;;;;1819039;78;21635;-87
2022/10/09 03:38:22;;;;;;;5.72;1.30;;;31.60;92.30;;;;;;1768161;80;21194;-87
2022/10/09 03:40:52;;;;;;;2.90;1.40;;;31.60;91.80;;;;;;1794347;78;21088;-88
2022/10/09 03:43:23;;;;;;;3.27;1.57;;;31.80;91.80;;;;;;1805913;78;21135;-88
2022/10/09 03:45:54;;;;;;;2.70;1.20;;;31.80;91.70;;;;;;1760293;80;21803;-87
2022/10/09 03:48:26;;;;;;;4.47;1.55;;;31.80;91.70;;;;;;1800700;78;22241;-86
2022/10/09 03:50:57;;;;;;;3.10;1.55;;;31.90;91.20;;;;;;1760669;79;21181;-87
2022/10/09 03:53:28;;;;;;;4.53;1.47;;;31.90;91.10;;;;;;1797101;80;21434;-87
2022/10/09 03:55:59;;;;;;;2.95;1.30;;;32.00;90.90;;;;;;1762748;81;21201;-89
2022/10/09 03:58:29;;;;;;;4.22;1.47;;;32.10;91.60;;;;;;1799633;80;21131;-88
2022/10/09 04:01:00;;;;;;;4.72;1.75;;;32.20;90.50;;;;;;1804997;76;21388;-87
2022/10/09 04:03:31;;;;;;;2.27;1.30;;;32.30;90.80;;;;;;1745534;78;21142;-90
2022/10/09 04:06:01;;;;;;;3.95;1.30;;;32.30;90.40;;;;;;1803228;75;21175;-87
2022/10/09 04:08:32;;;;;;;3.75;1.35;;;32.40;90.40;;;;;;1807097;75;21191;-87
2022/10/09 04:11:03;;;;;;;2.85;1.57;;;32.50;90.10;;;;;;1812153;75;21149;-88
2022/10/09 04:13:50;;;;;;;2.83;1.17;;;32.50;89.70;;;;;;1768789;79;21165;-88
2022/10/09 04:16:21;;;;;;;2.67;1.50;;;32.50;90.10;;;;;;1829337;75;21120;-87
2022/10/09 04:18:52;;;;;;;3.58;1.57;;;32.50;90.30;;;;;;1808966;78;21164;-88
2022/10/09 04:21:23;;;;;;;5.03;1.50;;;32.60;90.40;;;;;;1804490;78;21239;-88
2022/10/09 04:23:54;;;;;;;2.50;1.22;;;32.60;89.40;;;;;;1805003;78;21636;-88
2022/10/09 04:26:24;;;;;;;2.67;1.40;;;32.60;89.70;;;;;;1802875;78;21758;-87
2022/10/09 04:28:55;;;;;;;3.65;1.50;;;32.60;89.10;;;;;;1827386;77;21237;-87
2022/10/09 04:31:26;;;;;;;3.80;1.40;;;32.60;90.00;;;;;;1789000;78;21144;-87
2022/10/09 04:33:57;;;;;;;2.87;1.40;;;32.60;89.80;;;;;;1861380;76;21139;-88
2022/10/09 04:36:27;;;;;;;2.95;1.27;;;32.70;89.40;;;;;;1872540;75;21498;-87
2022/10/09 04:38:58;;;;;;;3.00;1.37;;;32.70;89.40;;;;;;1861858;75;21182;-87
2022/10/09 04:41:29;;;;;;;2.90;1.30;;;32.70;88.30;;;;;;1877426;75;21231;-87
2022/10/09 04:44:01;;;;;;;3.60;1.62;;;32.70;88.60;;;;;;1865314;75;21163;-87
2022/10/09 04:46:31;;;;;;;4.00;1.45;;;32.60;89.00;;;;;;1860055;76;21576;-87
2022/10/09 04:49:02;;;;;;;2.55;1.37;;;32.70;88.30;;;;;;1874357;75;21110;-87
2022/10/09 04:51:33;;;;;;;5.00;1.67;;;32.70;88.90;;;;;;1858264;75;21173;-87
2022/10/09 04:54:03;;;;;;;3.00;1.37;;;32.80;89.20;;;;;;1867175;76;21145;-87
2022/10/09 04:56:34;;;;;;;3.60;1.42;;;32.90;87.20;;;;;;1871766;75;21184;-87
2022/10/09 04:59:05;;;;;;;2.52;1.30;;;32.90;88.00;;;;;;1874234;75;21140;-86
2022/10/09 05:01:36;;;;;;;3.37;1.52;;;32.90;86.80;;;;;;1835445;76;21773;-87
2022/10/09 05:04:07;;;;;;;2.33;1.20;;;32.80;87.10;;;;;;1804029;78;21230;-86
2022/10/09 05:06:37;;;;;;;2.83;1.20;;;32.80;86.30;;;;;;1825523;77;22211;-86
2022/10/09 05:09:08;;;;;;;3.42;1.52;;;32.70;86.90;;;;;;1792420;78;21188;-86
2022/10/09 05:11:40;;;;;;;3.42;1.37;;;32.60;87.10;;;;;;1783867;78;21207;-86
2022/10/09 05:14:12;;;;;;;3.50;1.52;;;32.50;87.40;;;;;;1824569;76;21148;-86
2022/10/09 05:16:43;;;;;;;4.53;1.60;;;32.50;87.70;;;;;;1797258;79;21155;-86
2022/10/09 05:19:15;;;;;;;2.50;1.30;;;32.50;87.60;;;;;;1794439;77;21716;-86
2022/10/09 05:21:46;;;;;;;2.55;1.25;;;32.50;87.40;;;;;;1790614;79;21802;-86
2022/10/09 05:24:16;;;;;;;3.65;1.60;;;32.50;87.80;;;;;;1788546;79;21280;-86
2022/10/09 05:26:47;;;;;;;4.65;1.65;;;32.50;86.40;;;;;;1788139;79;21123;-86
2022/10/09 05:29:18;;;;;;;2.92;1.65;;;32.60;86.30;;;;;;1782429;79;21227;-86
2022/10/09 05:31:48;;;;;;;2.92;1.72;;;32.70;86.60;;;;;;1877399;75;21085;-86
2022/10/09 05:34:19;;;;;;;4.87;1.98;;;32.80;86.90;;;;;;1890134;75;21617;-87
2022/10/09 05:36:50;;;;;;;3.33;1.85;;;32.80;87.30;;;;;;1878571;75;21129;-85
2022/10/09 05:39:20;;;;;;;4.15;1.80;;;32.90;89.00;;;;;;1865020;76;21166;-85
2022/10/09 05:41:51;;;;;;;4.33;1.85;;;32.80;86.60;;;;;;1867056;75;21140;-86
2022/10/09 05:44:22;;;;;;;3.35;1.95;;;32.80;87.00;;;;;;1865059;75;21098;-85
2022/10/09 05:46:52;;;;;;;3.75;2.05;;;32.80;87.50;;;;;;1863146;76;21169;-84
2022/10/09 05:49:23;;;;;;;4.65;1.95;;;32.80;89.10;;;;;;1864434;75;21134;-86
2022/10/09 05:51:54;;;;;;;3.17;1.62;;;32.80;88.10;;;;;;1869088;75;21164;-86
2022/10/09 05:54:26;;;;;;;3.80;1.80;;;32.80;87.80;;;;;;1867410;75;21157;-86
2022/10/09 05:56:56;;;;;;;3.98;1.62;;;32.80;86.80;;;;;;1865715;75;21581;-85
2022/10/09 05:59:27;;;;;;;2.65;1.77;;;32.70;87.40;;;;;;1885290;75;21185;-86
2022/10/09 06:01:58;;;;;;;3.83;1.77;;;32.70;86.30;;;;;;1869045;75;21142;-86
2022/10/09 06:04:29;;;;;;;2.45;1.55;;;32.70;86.70;;;;;;1867026;76;21157;-86
2022/10/09 06:07:00;;;;;;;3.45;1.90;;;32.70;86.80;;;;;;1864769;75;21585;-87
2022/10/09 06:09:30;;;;;;;3.98;1.52;;;32.70;86.60;;;;;;1877785;75;21154;-86
2022/10/09 06:12:01;;;;;;;2.65;1.82;;;32.60;87.30;;;;;;1873806;75;21188;-85
2022/10/09 06:14:31;;;;;;;2.67;1.80;;;32.70;86.50;;;;;;1874596;76;21211;-86
2022/10/09 06:17:02;;;;;;;4.17;1.70;;;32.60;87.00;;;;;;1870326;76;21191;-86
2022/10/09 06:19:33;;;;;;;3.77;1.80;;;32.70;87.60;;;;;;1853678;76;21074;-85
2022/10/09 06:22:04;;;;;;;2.92;2.00;;;32.70;87.20;;;;;;1810812;77;21086;-85
2022/10/09 06:24:35;;;;;;;2.72;1.75;;;32.70;88.00;;;;;;1793296;77;21146;-87
2022/10/09 06:27:06;;;;;;;3.58;1.80;;;32.70;87.40;;;;;;1817556;77;21267;-86
2022/10/09 06:29:37;;;;;;;4.45;2.00;;;32.70;87.10;;;;;;1820390;78;21583;-86
2022/10/09 06:32:07;;;;;;;2.80;1.85;;;32.60;88.30;;;;;;1820537;77;21116;-85
2022/10/09 06:34:38;;;;;;;4.92;1.90;;;32.60;87.50;;;;;;1861190;76;21165;-85
2022/10/09 06:37:09;;;;;;;3.58;2.12;;;32.60;87.80;;;;;;1866289;75;21069;-86
2022/10/09 06:39:39;;;;;;;2.62;1.77;;;32.60;87.60;;;;;;1808806;78;21125;-84
2022/10/09 06:42:10;;;;;;;3.72;1.72;;;32.60;87.90;;;;;;1782835;80;21207;-86
2022/10/09 06:44:43;;;;;;;2.98;1.70;;;32.60;88.30;;;;;;1835354;77;22036;-86
2022/10/09 06:47:13;;;;;;;3.83;1.62;;;32.60;87.00;;;;;;1779893;79;21137;-86
2022/10/09 06:49:43;;;;;;;3.55;1.85;;;32.70;86.80;;;;;;1777776;79;21154;-87
2022/10/09 06:52:14;;;;;;;2.98;1.70;;;32.70;87.60;;;;;;1864404;76;21121;-87
2022/10/09 06:54:45;;;;;;;5.25;1.82;;;32.80;87.10;;;;;;1878540;75;21054;-87
2022/10/09 06:57:15;;;;;;;3.50;1.70;;;32.80;86.20;;;;;;1815549;77;21121;-86
2022/10/09 06:59:48;;;;;;;2.05;1.45;;;32.90;85.50;;;;;;1819477;77;21139;-86
2022/10/09 07:02:31;;;;;;;4.17;1.82;;;32.90;86.40;;;;;;1827898;78;21154;-84
2022/10/09 07:05:15;;;;;;;3.67;2.37;;;32.90;87.70;;;;;;1809057;77;21176;-86
2022/10/09 07:07:57;;;;;;;5.17;2.85;;;32.70;89.20;;;;;;1821434;79;21210;-84
2022/10/09 07:10:37;;;;;;;4.37;2.37;;;32.50;90.00;;;;;;1792507;80;21618;-86
2022/10/09 07:13:08;;;;;;;5.03;2.45;;;32.30;90.50;;;;;;1823697;77;21155;-87
2022/10/09 07:15:41;;;;;;;5.08;2.67;;;32.20;90.80;;;;;;1811395;78;21096;-87
2022/10/09 07:18:14;;;;;;;5.40;3.25;;;32.10;90.70;;;;;;1809789;78;21074;-87
2022/10/09 07:20:45;;;;;;;5.75;3.55;;;32.10;90.90;;;;;;1813102;78;21158;-88
2022/10/09 07:23:16;;;;;;;5.85;2.65;;;32.00;91.10;;;;;;1806443;78;21099;-87
2022/10/09 07:25:47;;;;;;;3.87;2.35;;;32.00;91.30;;;;;;1802041;78;21074;-87
2022/10/09 07:28:17;;;;;;;5.55;3.15;;;32.00;91.50;;;;;;1810314;77;21168;-87
2022/10/09 07:30:48;;;;;;;5.65;3.27;;;31.90;91.50;;;;;;1788363;78;21162;-87
2022/10/09 07:33:19;;;;;;;6.30;2.87;;;31.80;91.50;;;;;;1792892;79;21235;-88
2022/10/09 07:35:53;;;;;;;3.85;2.50;;;31.70;91.70;;;;;;1783574;79;21214;-87
2022/10/09 07:38:24;;;;;;;6.72;2.83;;;31.60;91.80;;;;;;1856713;76;21889;-86
2022/10/09 07:40:56;;;;;;;4.92;2.90;;;31.50;91.90;;;;;;1869844;77;21111;-87
2022/10/09 07:43:27;;;;;;;4.47;2.85;;;31.40;92.00;;;;;;1831472;76;21133;-88
2022/10/09 07:46:02;;;;;;;5.80;2.87;;;31.40;92.00;;;;;;1830440;78;21238;-86
2022/10/09 07:48:35;;;;;;;4.55;3.02;;;31.40;92.10;;;;;;1825740;78;21118;-89
2022/10/09 07:51:08;;;;;;;5.00;3.02;;;31.40;92.10;;;;;;1812412;78;21290;-88
2022/10/09 07:53:39;;;;;;;4.08;2.87;;;31.40;92.10;;;;;;1842325;77;21126;-88
2022/10/09 07:56:12;;;;;;;4.83;3.00;;;31.40;92.20;;;;;;1848452;76;21167;-89
2022/10/09 07:58:44;;;;;;;5.03;3.08;;;31.50;91.90;;;;;;1838093;76;21131;-89
2022/10/09 08:01:14;;;;;;;5.03;2.83;;;31.60;92.10;;;;;;1837376;77;21212;-89
2022/10/09 08:03:47;;;;;;;4.35;2.47;;;31.70;92.20;;;;;;1830351;76;21137;-88
2022/10/09 08:06:19;;;;;;;5.40;2.40;;;31.80;91.70;;;;;;1824323;76;21166;-88
2022/10/09 08:08:52;;;;;;;4.03;2.40;;;31.90;91.00;;;;;;1855874;76;21079;-88
2022/10/09 08:11:25;;;;;;;4.00;2.25;;;32.00;90.10;;;;;;1839502;76;21206;-87
2022/10/09 08:13:55;;;;;;;3.62;2.62;;;32.10;90.10;;;;;;1850974;76;21206;-88
2022/10/09 08:16:27;;;;;;;4.10;2.20;;;32.20;90.10;;;;;;1841335;76;21149;-88
2022/10/09 08:19:00;;;;;;;3.27;2.10;;;32.20;89.90;;;;;;1885827;75;21121;-88
2022/10/09 08:21:31;;;;;;;4.67;2.40;;;32.20;90.00;;;;;;1869488;75;21115;-89
2022/10/09 08:24:02;;;;;;;3.77;2.47;;;32.20;90.10;;;;;;1855405;76;21139;-88
2022/10/09 08:26:33;;;;;;;5.97;2.70;;;32.20;90.00;;;;;;1856247;76;21119;-88
2022/10/09 08:29:07;;;;;;;6.35;2.45;;;32.20;89.90;;;;;;1797900;78;21125;-86
2022/10/09 08:31:37;;;;;;;4.22;2.47;;;32.20;89.70;;;;;;1785878;78;21183;-88
2022/10/09 08:34:10;;;;;;;4.72;2.67;;;32.20;90.10;;;;;;1785700;79;21191;-86
2022/10/09 08:36:41;;;;;;;3.62;2.40;;;32.20;90.10;;;;;;1810135;78;21162;-89
2022/10/09 08:39:11;;;;;;;6.05;2.30;;;32.20;90.20;;;;;;1793715;79;21182;-88
2022/10/09 08:41:45;;;;;;;4.10;2.45;;;32.10;90.40;;;;;;1837282;78;21194;-85
2022/10/09 08:44:18;;;;;;;4.03;2.30;;;32.10;90.50;;;;;;1791659;76;21640;-89
2022/10/09 08:46:51;;;;;;;5.70;2.27;;;32.10;90.40;;;;;;1865751;75;21237;-89
2022/10/09 08:49:25;;;;;;;5.33;2.70;;;32.10;90.50;;;;;;1850580;77;21215;-90
2022/10/09 08:51:58;;;;;;;7.17;2.65;;;32.10;90.60;;;;;;1863355;77;21185;-89
2022/10/09 08:54:31;;;;;;;3.77;2.50;;;32.10;90.00;;;;;;1849958;76;21162;-89
2022/10/09 08:57:04;;;;;;;4.78;2.30;;;32.10;90.40;;;;;;1855065;76;21639;-89
2022/10/09 08:59:35;;;;;;;4.47;2.60;;;32.20;90.00;;;;;;1861868;75;21127;-88
2022/10/09 09:02:07;;;;;;;5.55;2.50;;;32.20;90.20;;;;;;1865512;75;21162;-88
2022/10/09 09:04:40;;;;;;;4.67;2.42;;;32.20;90.00;;;;;;1859040;75;21574;-89
2022/10/09 09:07:13;;;;;;;4.62;2.30;;;32.10;90.00;;;;;;1855637;76;21139;-86
2022/10/09 09:09:46;;;;;;;3.25;2.02;;;32.20;90.10;;;;;;1856720;75;21056;-88
2022/10/09 09:12:19;;;;;;;5.00;2.27;;;32.20;90.20;;;;;;1849917;76;21130;-88
2022/10/09 09:14:51;;;;;;;4.03;2.62;;;32.20;90.30;;;;;;1851584;77;21119;-88
2022/10/09 09:17:24;;;;;;;4.17;2.42;;;32.20;90.40;;;;;;1849199;75;21586;-88
2022/10/09 09:19:58;;;;;;;4.55;2.50;;;32.10;90.30;;;;;;1851589;75;21199;-87
2022/10/09 09:22:30;;;;;;;4.22;2.27;;;32.10;90.40;;;;;;1837743;76;21174;-89
2022/10/09 09:25:03;;;;;;;5.47;2.60;;;32.10;90.40;;;;;;1833841;77;21133;-87
2022/10/09 09:27:36;;;;;;;3.65;2.25;;;32.00;90.10;;;;;;1838027;76;21593;-87
2022/10/09 09:30:09;;;;;;;6.00;2.35;;;32.00;90.10;;;;;;1837035;78;21648;-88
2022/10/09 09:32:43;;;;;;;4.95;2.58;;;32.00;90.20;;;;;;1835201;78;21130;-87
2022/10/09 09:35:14;;;;;;;3.85;2.37;;;32.00;90.20;;;;;;1838961;76;21118;-87
2022/10/09 09:37:45;;;;;;;5.05;2.50;;;31.90;90.30;;;;;;1841038;77;21099;-87
2022/10/09 09:40:18;;;;;;;2.95;2.05;;;31.90;90.20;;;;;;1832646;78;21167;-87
2022/10/09 09:48:34;;;;;;;3.37;2.05;;;31.80;90.10;;;;;;1846936;76;21166;-87
2022/10/09 09:51:10;;;;;;;3.87;2.20;;;31.70;90.10;;;;;;1839901;76;21134;-87
2022/10/09 09:53:45;;;;;;;4.05;2.35;;;31.70;89.90;;;;;;1836619;78;21199;-89
2022/10/09 09:56:32;;;;;;;;;;;;;;;;;;;;;
2022/10/09 09:58:56;;;;;;;3.72;2.37;;;31.60;90.40;;;;;;1843633;76;21142;-88
2022/10/09 10:01:31;;;;;;;4.33;2.60;;;31.50;90.40;;;;;;1876283;76;21076;-89
2022/10/09 10:04:04;;;;;;;5.40;2.30;;;31.50;90.50;;;;;;1858876;76;21141;-89
2022/10/09 10:06:39;;;;;;;5.58;2.52;;;31.50;90.50;;;;;;1836926;76;21684;-86
2022/10/09 10:09:12;;;;;;;5.60;2.65;;;31.50;90.70;;;;;;1843485;77;21150;-87
2022/10/09 10:11:48;;;;;;;3.87;2.50;;;31.40;90.70;;;;;;1842442;77;21629;-86
2022/10/09 10:14:26;;;;;;;4.15;2.40;;;31.40;90.70;;;;;;1844331;76;21105;-87
2022/10/09 10:16:58;;;;;;;5.22;2.72;;;31.40;91.20;;;;;;1837311;77;21094;-86
2022/10/09 10:19:37;;;;;;;3.62;2.17;;;31.40;90.90;;;;;;1825288;78;21211;-86
2022/10/09 10:22:07;;;;;;;5.92;3.05;;;31.30;90.90;;;;;;1817807;77;21617;-86
2022/10/09 10:24:41;;;;;;;6.08;2.87;;;31.30;91.10;;;;;;1834504;77;21205;-85
2022/10/09 10:27:13;;;;;;;4.70;2.90;;;31.30;91.00;;;;;;1869130;76;21559;-85
2022/10/09 10:29:46;;;;;;;7.20;2.90;;;31.20;90.90;;;;;;1837667;76;21138;-85
2022/10/09 10:32:19;;;;;;;5.83;2.85;;;31.20;90.90;;;;;;1832320;78;21157;-84
2022/10/09 10:34:50;;;;;;;4.22;3.02;;;31.20;91.00;;;;;;1836031;77;21119;-84
2022/10/09 10:37:20;;;;;;;6.42;3.35;;;31.10;91.00;;;;;;1868230;76;21193;-85
2022/10/09 10:39:53;;;;;;;4.90;3.10;;;31.20;91.00;;;;;;1864229;77;21181;-85
2022/10/09 10:42:28;;;;;;;4.90;3.20;;;31.10;91.10;;;;;;1825668;78;21211;-86
2022/10/09 10:45:02;;;;;;;6.12;3.10;;;31.10;91.20;;;;;;1825060;77;21139;-85
2022/10/09 10:47:38;;;;;;;6.80;3.20;;;31.00;91.30;;;;;;1866954;77;21363;-86
2022/10/09 10:50:12;;;;;;;6.12;3.77;;;31.00;91.30;;;;;;1831866;76;21137;-85
2022/10/09 10:52:45;;;;;;;7.87;3.80;;;31.00;91.40;;;;;;1834082;77;21127;-85
2022/10/09 10:55:20;;;;;;;7.83;3.77;;;31.00;91.40;;;;;;1816822;77;21130;-85
2022/10/09 10:57:52;;;;;;;6.95;3.50;;;31.00;91.40;;;;;;1836083;77;21092;-85
2022/10/09 11:00:26;;;;;;;6.85;3.98;;;30.90;91.40;;;;;;1832869;77;21834;-85
2022/10/09 11:03:02;;;;;;;8.73;4.03;;;30.90;91.50;;;;;;1829601;77;21079;-84
2022/10/09 11:05:35;;;;;;;6.30;3.58;;;30.90;91.60;;;;;;1822593;78;21594;-85
2022/10/09 11:08:08;;;;;;;8.43;4.30;;;30.90;91.70;;;;;;1831074;78;21142;-84
2022/10/09 11:10:41;;;;;;;9.10;3.50;;;30.90;91.70;;;;;;1839227;77;21187;-86
2022/10/09 11:13:11;;;;;;;9.33;3.80;;;30.80;91.80;;;;;;1836507;77;21871;-84
2022/10/09 11:15:44;;;;;;;8.23;4.00;;;30.80;92.00;;;;;;1835076;76;21609;-83
2022/10/09 11:18:16;;;;;;;11.73;4.80;;;30.80;92.20;;;;;;1819790;78;21134;-86
2022/10/09 11:20:49;;;;;;;9.70;4.85;;;30.80;92.40;;;;;;1838614;76;21612;-85
2022/10/09 11:23:22;;;;;;;6.22;4.58;;;30.70;92.50;;;;;;1858966;75;21657;-83
2022/10/09 11:25:55;;;;;;;7.50;4.67;;;30.70;92.70;;;;;;1854804;76;21095;-84
2022/10/09 11:28:32;;;;;;;9.55;4.62;;;30.70;92.90;;;;;;1847105;78;21177;-85
2022/10/09 11:31:05;;;;;;;6.45;4.85;;;30.70;93.00;;;;;;1861616;76;21189;-84
2022/10/09 11:33:40;;;;;;;9.95;5.05;;;30.60;93.40;;;;;;1862673;76;21080;-84
2022/10/09 11:36:13;;;;;;;8.58;5.15;;;30.60;93.70;;;;;;1872625;76;21106;-84
2022/10/09 11:38:46;;;;;;;8.50;4.30;;;30.60;93.90;;;;;;1857390;76;21147;-84
2022/10/09 11:41:18;;;;;;;7.33;4.37;;;30.60;93.90;;;;;;1855328;76;21217;-85
2022/10/09 11:43:51;;;;;;;8.25;4.22;;;30.50;94.30;;;;;;1863109;76;21164;-84
2022/10/09 11:46:27;;;;;;;8.03;4.30;;;30.50;94.10;;;;;;1849411;76;21095;-83
2022/10/09 11:48:57;;;;;;;7.22;4.22;;;30.50;94.20;;;;;;1869140;76;21144;-83
2022/10/09 11:51:38;;;;;;;9.00;4.62;;;30.50;94.40;;;;;;1848361;76;21122;-84
2022/10/09 11:54:26;;;;;;;6.75;4.05;;;30.50;94.20;;;;;;1847566;76;21067;-85
2022/10/09 11:57:15;;;;;;;6.05;3.52;;;30.40;94.30;;;;;;1849786;76;21124;-84
2022/10/09 12:00:07;;;;;;;8.23;3.27;;;30.40;94.20;;;;;;1881168;76;21214;-83
2022/10/09 12:02:48;;;;;;;4.83;2.50;;;30.20;94.00;;;;;;1852697;76;21653;-86
2022/10/09 12:05:26;;;;;;;3.30;1.45;;;30.10;93.90;;;;;;1855648;76;21208;-85
2022/10/09 12:08:20;;;;;;;3.40;1.87;;;30.00;93.70;;;;;;1781147;79;21186;-84
2022/10/09 12:10:56;;;;;;;2.95;1.75;;;29.70;93.90;;;;;;1791213;78;21130;-84
2022/10/09 12:13:50;;;;;;;6.75;2.27;;;29.60;94.10;;;;;;1816051;78;21170;-82
2022/10/09 12:16:30;;;;;;;3.35;2.15;;;29.50;94.40;;;;;;1790255;79;21225;-84
2022/10/09 12:19:23;;;;;;;4.78;1.80;;;29.40;94.40;;;;;;1789974;79;21170;-85
2022/10/09 12:22:04;;;;;;;4.72;1.50;;;29.40;94.50;;;;;;1789552;79;21194;-82
2022/10/09 12:24:51;;;;;;;2.77;1.50;;;29.30;94.30;;;;;;1828114;77;21151;-82
2022/10/09 12:27:56;;;;;;;2.90;1.45;;;29.30;94.40;;;;;;1833602;77;21170;-83
2022/10/09 12:30:30;;;;;;;2.33;1.40;;;29.30;94.50;;;;;;1813486;78;21774;-84
2022/10/09 12:33:35;;;;;;;5.67;1.80;;;29.30;94.30;;;;;;1812294;77;21185;-84
2022/10/09 12:36:12;;;;;;;2.80;1.42;;;29.30;94.10;;;;;;1820925;77;21226;-84
2022/10/09 12:39:03;;;;;;;2.60;1.40;;;29.40;93.90;;;;;;1793340;78;21148;-84
2022/10/09 12:41:54;;;;;;;2.70;1.17;;;29.40;93.80;;;;;;1820592;78;21143;-85
2022/10/09 12:44:45;;;;;;;2.67;1.25;;;29.40;93.80;;;;;;1811578;78;21179;-83
2022/10/09 12:47:25;;;;;;;4.75;1.65;;;29.40;93.80;;;;;;1818208;77;21238;-84
2022/10/09 12:50:15;;;;;;;4.05;1.60;;;29.40;94.20;;;;;;1817817;78;21125;-83
2022/10/09 12:53:10;;;;;;;4.97;2.15;;;29.40;93.90;;;;;;1808787;78;21172;-83
2022/10/09 12:55:51;;;;;;;3.55;1.90;;;29.40;93.90;;;;;;1816227;77;21142;-83
2022/10/09 12:58:42;;;;;;;3.83;1.60;;;29.40;93.90;;;;;;1826467;77;21213;-83
2022/10/09 13:01:31;;;;;;;3.67;1.62;;;29.40;93.90;;;;;;1816280;78;21273;-85
2022/10/09 13:04:25;;;;;;;7.75;2.40;;;29.40;93.90;;;;;;1821117;77;21095;-84
2022/10/09 13:07:02;;;;;;;3.08;1.80;;;29.30;93.90;;;;;;1813262;77;21136;-84
2022/10/09 13:09:57;;;;;;;3.83;2.07;;;29.30;94.20;;;;;;1808925;79;21307;-84
2022/10/09 13:12:48;;;;;;;4.58;2.67;;;29.30;93.90;;;;;;1833173;77;21181;-85
2022/10/09 13:15:28;;;;;;;5.92;2.10;;;29.20;94.00;;;;;;1814976;77;21153;-84
2022/10/09 13:18:20;;;;;;;5.62;2.08;;;29.20;94.00;;;;;;1809367;78;21647;-84
2022/10/09 13:21:01;;;;;;;4.00;2.15;;;29.20;94.00;;;;;;1743907;80;21154;-85
2022/10/09 13:23:51;;;;;;;3.60;2.00;;;29.10;94.00;;;;;;1823194;76;21679;-86
2022/10/09 13:26:28;;;;;;;4.10;1.90;;;29.10;94.10;;;;;;1847168;76;21124;-86